Time;durP1;ratioP1;P1;durP2;ratioP2;P2;SDS_P1;SDS_P2;PMS_P1;PMS_P2;Temp;Humidity;BMP_temperature;BMP_pressure;BME280_temperature;BME280_humidity;BME280_pressure;Samples;Min_cycle;Max_cycle;Signal;HPM_P1;HPM_P2
2022/06/01 00:00:49;;;;;;;6.03;5.53;;;12.30;99.90;;;;;;5182970;28;20656;-55
2022/06/01 00:03:19;;;;;;;6.30;5.80;;;12.30;99.90;;;;;;5175512;28;20475;-54
2022/06/01 00:05:51;;;;;;;7.20;6.10;;;12.30;99.90;;;;;;5182497;28;20173;-55
2022/06/01 00:08:23;;;;;;;6.27;5.67;;;12.30;99.90;;;;;;5182810;28;20185;-52
2022/06/01 00:10:54;;;;;;;6.43;5.93;;;12.40;99.90;;;;;;5183507;28;20874;-55
2022/06/01 00:13:26;;;;;;;7.37;6.60;;;12.40;99.90;;;;;;5184455;28;20463;-54
2022/06/01 00:15:56;;;;;;;5.77;5.20;;;12.40;99.90;;;;;;5187798;28;20430;-53
2022/06/01 00:18:27;;;;;;;6.70;6.20;;;12.40;99.90;;;;;;5180373;28;20446;-54
2022/06/01 00:20:58;;;;;;;9.07;6.30;;;12.40;99.90;;;;;;5182159;28;20279;-54
2022/06/01 00:23:28;;;;;;;11.00;5.97;;;12.50;99.90;;;;;;5181898;28;20204;-54
2022/06/01 00:25:59;;;;;;;6.10;5.50;;;12.50;99.90;;;;;;5187828;28;20187;-54
2022/06/01 00:28:29;;;;;;;6.50;5.70;;;12.50;99.90;;;;;;5186522;28;20238;-55
2022/06/01 00:31:00;;;;;;;9.97;6.40;;;12.60;99.90;;;;;;5183604;28;20188;-54
2022/06/01 00:33:31;;;;;;;8.50;6.00;;;12.70;99.90;;;;;;5182291;28;20601;-55
2022/06/01 00:36:03;;;;;;;8.70;6.33;;;12.70;99.90;;;;;;5181167;28;20189;-54
2022/06/01 00:38:34;;;;;;;9.13;6.70;;;12.80;99.90;;;;;;5184104;28;20180;-54
2022/06/01 00:41:04;;;;;;;9.40;6.43;;;12.90;99.90;;;;;;5178440;28;20530;-54
2022/06/01 00:43:44;;;;;;;14.27;6.33;;;12.90;99.90;;;;;;5186312;28;20569;-55
2022/06/01 00:46:14;;;;;;;7.30;6.70;;;13.00;99.90;;;;;;5183561;28;20621;-54
2022/06/01 00:48:50;;;;;;;7.50;6.30;;;13.00;99.90;;;;;;5187417;28;20434;-54
2022/06/01 00:51:24;;;;;;;8.87;5.47;;;13.10;99.90;;;;;;5179468;28;20184;-54
2022/06/01 00:53:57;;;;;;;5.90;5.40;;;13.10;99.90;;;;;;5187065;28;20470;-54
2022/06/01 00:56:36;;;;;;;6.13;5.63;;;13.20;99.90;;;;;;5186797;28;20424;-55
2022/06/01 00:59:11;;;;;;;5.50;5.20;;;13.20;99.90;;;;;;5185343;28;20415;-54
2022/06/01 01:01:42;;;;;;;8.33;5.53;;;13.30;99.90;;;;;;5176976;28;20797;-54
2022/06/01 01:04:13;;;;;;;6.10;5.53;;;13.30;99.90;;;;;;5181424;28;20467;-55
2022/06/01 01:06:44;;;;;;;5.60;5.10;;;13.30;99.90;;;;;;5186953;28;20509;-54
2022/06/01 01:09:15;;;;;;;6.20;5.70;;;13.40;99.90;;;;;;5176330;28;20466;-54
2022/06/01 01:11:54;;;;;;;12.13;6.33;;;13.30;99.90;;;;;;5186161;28;20235;-55
2022/06/01 01:14:31;;;;;;;6.47;6.03;;;13.40;99.90;;;;;;5188175;28;20204;-55
2022/06/01 01:17:05;;;;;;;6.40;5.80;;;13.40;99.90;;;;;;5182426;28;20819;-55
2022/06/01 01:19:49;;;;;;;7.07;6.30;;;13.30;99.90;;;;;;5187926;28;20946;-53
2022/06/01 01:22:36;;;;;;;6.40;5.67;;;13.40;99.90;;;;;;5185278;28;20487;-54
2022/06/01 01:25:17;;;;;;;10.20;6.73;;;13.30;99.90;;;;;;5186291;28;20427;-55
2022/06/01 01:27:51;;;;;;;5.27;4.93;;;13.30;99.90;;;;;;5178510;28;20502;-54
2022/06/01 01:30:27;;;;;;;5.63;5.13;;;13.30;99.90;;;;;;5181472;28;20442;-55
2022/06/01 01:33:13;;;;;;;5.90;5.43;;;13.30;99.90;;;;;;5170800;28;20458;-55
2022/06/01 01:35:47;;;;;;;6.20;5.70;;;13.20;99.90;;;;;;5184298;28;20426;-56
2022/06/01 01:38:32;;;;;;;5.27;4.97;;;13.20;99.90;;;;;;5179585;28;20415;-54
2022/06/01 01:41:11;;;;;;;11.57;5.30;;;13.10;99.90;;;;;;5186855;28;20430;-54
2022/06/01 01:43:51;;;;;;;5.67;5.17;;;13.10;99.90;;;;;;5186187;28;20498;-54
2022/06/01 01:46:22;;;;;;;6.00;4.70;;;13.10;99.90;;;;;;5186812;28;20474;-55
2022/06/01 01:48:53;;;;;;;7.90;4.43;;;13.00;99.90;;;;;;5179117;28;20447;-54
2022/06/01 01:51:26;;;;;;;4.60;4.27;;;13.10;99.90;;;;;;5183584;28;20181;-55
2022/06/01 01:53:59;;;;;;;4.10;3.77;;;13.10;99.90;;;;;;5188101;28;20686;-55
2022/06/01 01:56:54;;;;;;;5.07;4.67;;;13.10;99.90;;;;;;5187482;28;20411;-55
2022/06/01 01:59:51;;;;;;;4.70;4.30;;;13.00;99.90;;;;;;5188973;28;20415;-54
2022/06/01 02:02:33;;;;;;;4.73;4.20;;;13.00;99.90;;;;;;5180958;28;20467;-55
2022/06/01 02:08:32;;;;;;;4.43;4.10;;;13.10;99.90;;;;;;5187997;28;20513;-55
2022/06/01 02:14:11;;;;;;;5.07;4.53;;;13.00;99.90;;;;;;5175350;28;20446;-54
2022/06/01 02:16:46;;;;;;;5.37;4.87;;;13.00;99.90;;;;;;5183256;28;20592;-55
2022/06/01 02:19:24;;;;;;;3.60;3.40;;;13.00;99.90;;;;;;5186487;28;20965;-55
2022/06/01 02:21:55;;;;;;;4.83;4.33;;;13.00;99.90;;;;;;5186685;28;20851;-55
2022/06/01 02:24:26;;;;;;;6.00;4.00;;;13.00;99.90;;;;;;5182684;28;20455;-55
2022/06/01 02:26:58;;;;;;;4.30;4.10;;;13.10;99.90;;;;;;5182354;28;20475;-55
2022/06/01 02:29:36;;;;;;;4.10;3.90;;;13.10;99.90;;;;;;5178477;28;20463;-54
2022/06/01 02:32:09;;;;;;;4.47;4.30;;;13.10;99.90;;;;;;5186296;28;20431;-55
2022/06/01 02:34:43;;;;;;;5.33;4.93;;;13.10;99.90;;;;;;5185977;28;20526;-55
2022/06/01 02:37:15;;;;;;;5.40;4.70;;;13.10;99.90;;;;;;5184373;28;20439;-54
2022/06/01 02:39:52;;;;;;;6.30;4.83;;;13.20;99.90;;;;;;5182198;28;20555;-56
2022/06/01 02:42:25;;;;;;;4.77;4.03;;;13.20;99.90;;;;;;5181163;28;20455;-55
2022/06/01 02:45:04;;;;;;;3.90;3.70;;;13.20;99.90;;;;;;5196183;28;20424;-56
2022/06/01 02:47:45;;;;;;;4.17;3.83;;;13.20;99.90;;;;;;5184605;28;20471;-56
2022/06/01 02:50:22;;;;;;;5.40;4.23;;;13.20;99.90;;;;;;5183455;28;20465;-55
2022/06/01 02:52:54;;;;;;;5.57;3.50;;;13.30;99.90;;;;;;5185257;28;20589;-55
2022/06/01 02:55:26;;;;;;;3.50;3.30;;;13.20;99.90;;;;;;5178593;28;21002;-56
2022/06/01 02:57:57;;;;;;;6.03;3.60;;;13.20;99.90;;;;;;5184735;28;20443;-55
2022/06/01 03:00:34;;;;;;;4.63;4.33;;;13.20;99.90;;;;;;5184078;28;20469;-55
2022/06/01 03:03:07;;;;;;;3.93;3.73;;;13.20;99.90;;;;;;5178910;28;20455;-55
2022/06/01 03:05:40;;;;;;;6.00;3.33;;;13.20;99.90;;;;;;5176078;28;20419;-55
2022/06/01 03:08:11;;;;;;;3.50;3.20;;;13.20;99.90;;;;;;5177045;28;20513;-55
2022/06/01 03:10:42;;;;;;;3.50;3.30;;;13.20;99.90;;;;;;5171895;28;20977;-54
2022/06/01 03:13:12;;;;;;;3.50;3.33;;;13.20;99.90;;;;;;5172560;28;20674;-54
2022/06/01 03:15:43;;;;;;;3.23;3.13;;;13.20;99.90;;;;;;5183773;28;20184;-55
2022/06/01 03:18:13;;;;;;;3.87;3.70;;;13.30;99.90;;;;;;5182701;28;20193;-56
2022/06/01 03:20:44;;;;;;;4.00;3.80;;;13.20;99.90;;;;;;5186393;28;20683;-56
2022/06/01 03:23:14;;;;;;;3.60;3.30;;;13.20;99.90;;;;;;5180585;28;20208;-56
2022/06/01 03:25:46;;;;;;;4.40;3.70;;;13.20;99.90;;;;;;5178263;28;20445;-56
2022/06/01 03:28:16;;;;;;;4.20;3.23;;;13.20;99.90;;;;;;5173027;28;20688;-56
2022/06/01 03:30:47;;;;;;;4.20;4.00;;;13.30;99.90;;;;;;5179664;28;20485;-55
2022/06/01 03:33:18;;;;;;;3.70;3.50;;;13.20;99.90;;;;;;5175854;28;20252;-55
2022/06/01 03:35:49;;;;;;;3.40;3.20;;;13.30;99.90;;;;;;5183766;28;20860;-55
2022/06/01 03:38:20;;;;;;;2.97;2.77;;;13.20;99.90;;;;;;5185071;28;20189;-55
2022/06/01 03:40:50;;;;;;;2.27;2.17;;;13.20;99.90;;;;;;5183922;28;20845;-55
2022/06/01 03:43:21;;;;;;;2.60;2.50;;;13.20;99.90;;;;;;5175058;28;20232;-54
2022/06/01 03:45:58;;;;;;;2.67;2.47;;;13.20;99.90;;;;;;5181331;28;20272;-54
2022/06/01 03:48:31;;;;;;;2.60;2.50;;;13.20;99.90;;;;;;5185171;28;20190;-55
2022/06/01 03:51:02;;;;;;;1.97;1.97;;;13.30;99.90;;;;;;5188593;28;20419;-54
2022/06/01 03:53:32;;;;;;;2.70;2.60;;;13.40;99.90;;;;;;5186375;28;20453;-55
2022/06/01 03:56:03;;;;;;;2.47;2.37;;;13.40;99.90;;;;;;5178926;28;20227;-55
2022/06/01 03:58:35;;;;;;;1.90;1.90;;;13.50;99.90;;;;;;5188814;28;20181;-54
2022/06/01 04:01:06;;;;;;;2.63;2.43;;;13.60;99.90;;;;;;5181090;28;20352;-55
2022/06/01 04:03:37;;;;;;;1.80;1.70;;;13.70;99.90;;;;;;5183485;28;20580;-54
2022/06/01 04:06:08;;;;;;;2.77;2.20;;;13.70;99.90;;;;;;5183402;28;20423;-56
2022/06/01 04:08:39;;;;;;;4.30;1.77;;;13.80;99.90;;;;;;5189088;28;20183;-56
2022/06/01 04:11:09;;;;;;;2.70;2.57;;;13.80;99.90;;;;;;5187369;28;20442;-56
2022/06/01 04:13:40;;;;;;;2.10;2.00;;;13.90;99.90;;;;;;5185384;28;20211;-55
2022/06/01 04:16:11;;;;;;;2.03;1.90;;;14.00;99.90;;;;;;5183534;28;20199;-55
2022/06/01 04:18:41;;;;;;;2.20;2.13;;;14.10;99.90;;;;;;5176916;28;20196;-55
2022/06/01 04:21:15;;;;;;;1.87;1.77;;;14.30;99.90;;;;;;5184600;28;20423;-54
2022/06/01 04:23:45;;;;;;;2.00;1.90;;;14.50;99.90;;;;;;5188923;28;20208;-55
2022/06/01 04:26:16;;;;;;;1.87;1.77;;;14.60;99.90;;;;;;5177406;28;20829;-55
2022/06/01 04:28:46;;;;;;;2.37;2.23;;;14.70;99.90;;;;;;5187772;28;20184;-55
2022/06/01 04:31:17;;;;;;;3.90;2.13;;;14.60;99.90;;;;;;5188349;28;20184;-55
2022/06/01 04:33:47;;;;;;;2.70;2.60;;;14.50;99.90;;;;;;5184790;28;20572;-55
2022/06/01 04:36:18;;;;;;;4.77;2.60;;;14.40;99.90;;;;;;5187444;28;20200;-54
2022/06/01 04:38:49;;;;;;;3.03;2.80;;;14.30;99.90;;;;;;5181656;28;20192;-55
2022/06/01 04:41:19;;;;;;;3.20;2.70;;;14.20;99.90;;;;;;5179875;28;20188;-55
2022/06/01 04:43:50;;;;;;;3.77;2.60;;;14.20;99.90;;;;;;5177448;28;20216;-55
2022/06/01 04:46:20;;;;;;;2.67;2.53;;;14.20;99.90;;;;;;5187952;28;20290;-56
2022/06/01 04:48:51;;;;;;;4.80;4.40;;;14.30;99.90;;;;;;5185781;28;20181;-56
2022/06/01 04:51:21;;;;;;;3.80;3.60;;;14.60;99.90;;;;;;5177994;28;20188;-55
2022/06/01 04:53:52;;;;;;;4.03;3.40;;;15.00;99.90;;;;;;5186559;28;20196;-55
2022/06/01 04:56:22;;;;;;;3.53;3.23;;;15.90;99.90;;;;;;5180645;28;20185;-56
2022/06/01 04:58:53;;;;;;;3.43;3.10;;;16.50;99.90;;;;;;5175292;28;20215;-57
2022/06/01 05:01:24;;;;;;;3.37;3.17;;;17.20;99.90;;;;;;5186435;28;20740;-57
2022/06/01 05:03:54;;;;;;;3.13;2.93;;;17.40;99.90;;;;;;5184956;28;20211;-56
2022/06/01 05:06:25;;;;;;;2.93;2.83;;;17.80;99.90;;;;;;5185358;28;20219;-55
2022/06/01 05:08:55;;;;;;;3.37;3.13;;;17.40;99.90;;;;;;5173277;28;20192;-55
2022/06/01 05:11:26;;;;;;;3.73;3.47;;;17.10;99.90;;;;;;5175981;28;20676;-55
2022/06/01 05:13:56;;;;;;;3.07;2.97;;;16.90;99.90;;;;;;5186799;28;20282;-55
2022/06/01 05:16:27;;;;;;;3.23;3.03;;;16.70;99.90;;;;;;5177298;28;20184;-56
2022/06/01 05:18:57;;;;;;;6.03;2.87;;;16.70;99.90;;;;;;5185949;28;20262;-55
2022/06/01 05:21:29;;;;;;;3.27;3.07;;;16.60;99.90;;;;;;5187938;28;20223;-55
2022/06/01 05:23:59;;;;;;;4.10;2.33;;;16.40;99.90;;;;;;5188472;28;20196;-56
2022/06/01 05:26:30;;;;;;;3.30;3.20;;;16.60;99.90;;;;;;5187610;28;20958;-56
2022/06/01 05:29:00;;;;;;;3.40;3.27;;;16.80;99.90;;;;;;5178696;28;20191;-56
2022/06/01 05:31:31;;;;;;;3.63;3.40;;;17.20;99.90;;;;;;5175521;28;20231;-54
2022/06/01 05:34:01;;;;;;;3.30;3.13;;;17.40;99.90;;;;;;5180917;28;20199;-55
2022/06/01 05:36:32;;;;;;;4.13;3.33;;;19.10;99.90;;;;;;5179694;28;20272;-55
2022/06/01 05:39:03;;;;;;;3.30;3.10;;;21.70;87.00;;;;;;5181367;28;20184;-57
2022/06/01 05:41:34;;;;;;;3.27;3.07;;;22.90;71.70;;;;;;5184794;28;20710;-58
2022/06/01 05:44:06;;;;;;;2.60;2.50;;;24.30;62.00;;;;;;5221765;23;20497;-52
2022/06/01 05:46:36;;;;;;;3.60;3.30;;;25.20;54.70;;;;;;5219308;28;20250;-51
2022/06/01 05:49:07;;;;;;;3.10;3.00;;;24.90;52.70;;;;;;5224840;28;20434;-52
2022/06/01 05:51:37;;;;;;;2.80;2.60;;;24.10;52.20;;;;;;5225603;28;20667;-50
2022/06/01 05:54:08;;;;;;;5.07;3.17;;;23.20;54.00;;;;;;5212968;28;20279;-50
2022/06/01 05:56:38;;;;;;;8.50;2.30;;;22.80;56.10;;;;;;5204861;28;20191;-52
2022/06/01 05:59:09;;;;;;;3.20;3.00;;;24.70;52.50;;;;;;5199525;28;20556;-50
2022/06/01 06:01:40;;;;;;;2.87;2.70;;;26.00;49.40;;;;;;5205078;28;20187;-51
2022/06/01 06:04:10;;;;;;;3.93;3.13;;;26.70;47.40;;;;;;5204795;28;20734;-51
2022/06/01 06:06:41;;;;;;;2.47;2.37;;;27.50;43.30;;;;;;5196582;28;20467;-51
2022/06/01 06:09:12;;;;;;;3.73;3.53;;;28.30;42.40;;;;;;5204224;28;20180;-51
2022/06/01 06:11:42;;;;;;;2.60;2.40;;;29.40;40.30;;;;;;5197869;28;20275;-51
2022/06/01 06:14:13;;;;;;;2.30;2.30;;;30.40;38.20;;;;;;5205491;28;20192;-50
2022/06/01 06:16:45;;;;;;;5.80;2.33;;;31.10;35.20;;;;;;5186580;28;20279;-50
2022/06/01 06:19:17;;;;;;;1.63;1.53;;;31.80;34.80;;;;;;5203965;28;20215;-51
2022/06/01 06:21:48;;;;;;;2.30;2.20;;;32.30;33.30;;;;;;5202832;28;20431;-50
2022/06/01 06:24:20;;;;;;;9.80;2.10;;;32.20;32.90;;;;;;5200725;28;20857;-54
2022/06/01 06:26:51;;;;;;;2.03;1.93;;;32.20;32.70;;;;;;5205523;28;20202;-51
2022/06/01 06:29:21;;;;;;;2.40;2.20;;;31.60;31.70;;;;;;5201999;28;20461;-53
2022/06/01 06:31:52;;;;;;;1.13;1.13;;;30.40;33.30;;;;;;5196427;28;20203;-52
2022/06/01 06:34:22;;;;;;;1.67;1.57;;;29.20;35.00;;;;;;5198808;28;20204;-50
2022/06/01 06:36:54;;;;;;;1.83;1.73;;;28.20;36.70;;;;;;5201130;28;20183;-50
2022/06/01 06:39:24;;;;;;;1.70;1.70;;;27.00;38.70;;;;;;5193305;28;20195;-53
2022/06/01 06:41:55;;;;;;;2.80;1.90;;;26.30;39.60;;;;;;5200665;28;20946;-52
2022/06/01 06:44:25;;;;;;;3.63;1.83;;;26.20;40.00;;;;;;5204378;28;20648;-51
2022/06/01 06:46:56;;;;;;;3.03;2.13;;;26.50;40.70;;;;;;5202420;28;20211;-51
2022/06/01 06:49:26;;;;;;;10.63;2.30;;;27.20;39.10;;;;;;5204316;28;20669;-51
2022/06/01 06:51:57;;;;;;;9.37;3.93;;;26.80;38.70;;;;;;5202143;28;20187;-52
2022/06/01 06:54:28;;;;;;;2.00;1.90;;;26.90;39.00;;;;;;5196685;28;20203;-52
2022/06/01 06:56:58;;;;;;;2.93;2.13;;;27.30;38.80;;;;;;5206162;28;20314;-51
2022/06/01 06:59:29;;;;;;;2.40;1.80;;;27.60;38.20;;;;;;5194657;28;20180;-52
2022/06/01 07:02:00;;;;;;;2.67;2.47;;;27.70;37.60;;;;;;5199630;28;20191;-52
2022/06/01 07:04:30;;;;;;;2.47;2.33;;;27.20;38.40;;;;;;5197616;28;20569;-52
2022/06/01 07:07:01;;;;;;;2.90;2.30;;;27.70;38.50;;;;;;5200280;28;20249;-50
2022/06/01 07:09:32;;;;;;;2.87;2.43;;;29.70;35.70;;;;;;5200063;28;20180;-53
2022/06/01 07:12:03;;;;;;;1.43;1.33;;;31.10;33.50;;;;;;5194595;28;20739;-50
2022/06/01 07:14:33;;;;;;;2.20;2.00;;;32.80;31.50;;;;;;5196627;28;20208;-52
2022/06/01 07:17:04;;;;;;;2.10;2.00;;;33.30;30.00;;;;;;5202074;28;20604;-54
2022/06/01 07:19:34;;;;;;;1.37;1.37;;;33.90;29.80;;;;;;5199816;28;20586;-52
2022/06/01 07:22:05;;;;;;;1.30;1.23;;;34.60;29.00;;;;;;5200533;28;20192;-53
2022/06/01 07:24:36;;;;;;;1.70;1.60;;;34.30;28.50;;;;;;5199333;28;20211;-52
2022/06/01 07:27:06;;;;;;;1.90;1.80;;;34.60;28.50;;;;;;5196487;28;20293;-51
2022/06/01 07:29:37;;;;;;;1.83;1.77;;;34.90;28.60;;;;;;5201033;28;20550;-51
2022/06/01 07:32:08;;;;;;;23.83;9.98;;;35.30;27.60;;;;;;5202863;28;20191;-51
2022/06/01 07:34:38;;;;;;;2.67;2.50;;;34.90;27.60;;;;;;5200660;28;20215;-50
2022/06/01 07:45:39;;;;;;;1.80;1.70;;;28.00;36.60;;;;;;5204003;28;20548;-51
2022/06/01 07:48:09;;;;;;;1.87;1.73;;;28.80;34.90;;;;;;5198103;28;20511;-52
2022/06/01 07:50:40;;;;;;;1.67;1.67;;;29.50;33.60;;;;;;5204264;28;20453;-50
2022/06/01 07:53:11;;;;;;;2.50;1.80;;;29.20;33.80;;;;;;5203276;28;20204;-51
2022/06/01 07:55:41;;;;;;;1.63;1.53;;;28.20;35.40;;;;;;5199644;28;20176;-51
2022/06/01 07:58:12;;;;;;;1.90;1.90;;;28.10;35.10;;;;;;5197253;28;20239;-52
2022/06/01 08:00:43;;;;;;;1.63;1.60;;;26.30;36.80;;;;;;5199759;28;20229;-50
2022/06/01 08:03:16;;;;;;;2.40;1.50;;;25.40;39.60;;;;;;5195851;28;20199;-55
2022/06/01 08:05:46;;;;;;;1.30;1.30;;;26.50;39.50;;;;;;5192965;28;20180;-52
2022/06/01 08:08:17;;;;;;;2.00;1.30;;;28.50;36.40;;;;;;5197323;28;20538;-52
2022/06/01 08:10:47;;;;;;;1.67;1.57;;;28.50;35.70;;;;;;5201534;28;20640;-51
2022/06/01 08:13:18;;;;;;;2.57;2.17;;;28.20;36.00;;;;;;5200597;28;20212;-51
2022/06/01 08:15:49;;;;;;;3.60;2.20;;;27.10;37.10;;;;;;5195237;28;20229;-50
2022/06/01 08:18:22;;;;;;;1.77;1.67;;;25.50;39.10;;;;;;5199686;28;20207;-51
2022/06/01 08:20:53;;;;;;;2.50;1.70;;;24.20;41.50;;;;;;5192169;28;20526;-50
2022/06/01 08:23:27;;;;;;;1.90;1.80;;;23.30;43.60;;;;;;5195258;28;20543;-51
2022/06/01 08:25:58;;;;;;;1.40;1.40;;;22.60;44.90;;;;;;5203909;28;20442;-52
2022/06/01 08:28:28;;;;;;;1.80;1.77;;;22.40;45.70;;;;;;5202603;28;20527;-54
2022/06/01 08:30:59;;;;;;;2.30;2.10;;;22.40;45.70;;;;;;5199230;28;20798;-54
2022/06/01 08:33:29;;;;;;;1.50;1.50;;;22.50;45.20;;;;;;5195369;28;20231;-54
2022/06/01 08:36:00;;;;;;;4.47;2.40;;;22.60;45.20;;;;;;5196222;28;20270;-56
2022/06/01 08:38:31;;;;;;;1.80;1.70;;;22.70;44.70;;;;;;5208259;28;20188;-54
2022/06/01 08:41:05;;;;;;;2.00;1.80;;;22.40;45.00;;;;;;5208290;28;20577;-55
2022/06/01 08:43:55;;;;;;;4.30;2.47;;;21.60;46.10;;;;;;5206615;28;20329;-54
2022/06/01 08:46:29;;;;;;;4.47;2.17;;;21.50;46.40;;;;;;5205333;28;20498;-54
2022/06/01 08:49:04;;;;;;;4.70;1.57;;;21.40;46.90;;;;;;5197557;28;20420;-55
2022/06/01 08:51:35;;;;;;;2.50;2.30;;;21.20;47.40;;;;;;5208592;28;20417;-56
2022/06/01 08:54:05;;;;;;;3.73;1.90;;;21.40;47.70;;;;;;5202056;28;20458;-56
2022/06/01 08:56:42;;;;;;;1.80;1.70;;;21.80;46.20;;;;;;5202296;28;20527;-54
2022/06/01 08:59:34;;;;;;;2.03;1.93;;;22.10;44.90;;;;;;5201144;28;20187;-54
2022/06/01 09:02:19;;;;;;;2.67;2.20;;;22.70;44.00;;;;;;5204138;28;20846;-52
2022/06/01 09:05:03;;;;;;;5.20;2.03;;;22.10;44.00;;;;;;5207782;28;20434;-53
2022/06/01 09:07:47;;;;;;;10.83;1.70;;;21.60;45.20;;;;;;5206141;28;20509;-56
2022/06/01 09:10:55;;;;;;;2.10;2.00;;;21.30;46.60;;;;;;5200800;28;20880;-56
2022/06/01 09:13:33;;;;;;;2.50;2.40;;;21.50;47.10;;;;;;5194443;28;20504;-55
2022/06/01 09:16:31;;;;;;;4.67;2.37;;;21.90;46.40;;;;;;5205308;28;20426;-55
2022/06/01 09:19:02;;;;;;;1.83;1.83;;;22.50;46.00;;;;;;5191429;28;20426;-54
2022/06/01 09:24:31;;;;;;;4.97;4.50;;;23.40;44.30;;;;;;5201117;28;20284;-53
2022/06/01 09:27:08;;;;;;;4.77;3.07;;;23.60;43.90;;;;;;5206753;28;20470;-55
2022/06/01 09:29:48;;;;;;;1.97;1.83;;;23.40;43.80;;;;;;5195289;28;20439;-55
2022/06/01 09:32:30;;;;;;;1.93;1.80;;;22.80;41.50;;;;;;5198025;28;20472;-55
2022/06/01 09:35:05;;;;;;;2.37;1.97;;;22.40;43.30;;;;;;5201236;28;20430;-54
2022/06/01 09:37:46;;;;;;;5.20;3.10;;;22.10;43.40;;;;;;5201384;28;20492;-54
2022/06/01 09:40:28;;;;;;;6.00;3.53;;;21.50;44.10;;;;;;5202427;28;20431;-54
2022/06/01 09:43:02;;;;;;;8.40;2.10;;;20.80;44.90;;;;;;5202667;28;20470;-51
2022/06/01 09:45:44;;;;;;;1.97;1.80;;;20.40;46.20;;;;;;5195973;28;20429;-53
2022/06/01 09:48:29;;;;;;;2.10;1.90;;;20.20;46.80;;;;;;5205564;28;20466;-54
2022/06/01 09:51:18;;;;;;;2.77;2.50;;;20.10;46.50;;;;;;5203768;28;20796;-54
2022/06/01 09:54:08;;;;;;;1.90;1.80;;;20.20;47.50;;;;;;5194475;28;20858;-53
2022/06/01 09:56:47;;;;;;;3.20;2.30;;;20.40;46.60;;;;;;5198857;28;20445;-55
2022/06/01 10:08:18;;;;;;;4.00;2.27;;;20.50;44.80;;;;;;5205859;28;20469;-51
2022/06/01 10:10:58;;;;;;;2.40;2.30;;;20.10;45.60;;;;;;5205977;28;20475;-51
2022/06/01 10:13:52;;;;;;;2.37;1.97;;;20.10;45.80;;;;;;5205451;28;20458;-51
2022/06/01 10:16:52;;;;;;;3.93;1.33;;;19.80;46.10;;;;;;5204287;28;20526;-49
2022/06/01 10:19:31;;;;;;;15.77;1.90;;;19.80;45.40;;;;;;5191569;28;20809;-51
2022/06/01 10:22:17;;;;;;;2.20;2.00;;;19.80;45.90;;;;;;5200020;28;20427;-50
2022/06/01 10:25:14;;;;;;;4.50;1.87;;;20.10;46.00;;;;;;5198627;28;20465;-52
2022/06/01 10:27:56;;;;;;;1.80;1.70;;;20.10;45.80;;;;;;5196216;28;20581;-50
2022/06/01 10:30:37;;;;;;;1.60;1.60;;;20.30;45.20;;;;;;5197227;28;20572;-53
2022/06/01 10:33:29;;;;;;;1.90;1.80;;;20.60;44.90;;;;;;5205110;28;20475;-50
2022/06/01 10:36:16;;;;;;;4.37;2.10;;;21.00;44.10;;;;;;5193569;28;20430;-51
2022/06/01 10:39:05;;;;;;;2.33;1.50;;;21.20;43.90;;;;;;5196075;28;20529;-49
2022/06/01 10:41:47;;;;;;;2.20;2.03;;;21.60;42.90;;;;;;5195397;28;20426;-50
2022/06/01 10:44:29;;;;;;;9.07;4.93;;;21.90;41.80;;;;;;5205521;28;21135;-50
2022/06/01 10:47:03;;;;;;;2.50;2.13;;;22.00;42.20;;;;;;5199314;28;20466;-52
2022/06/01 10:49:40;;;;;;;2.33;2.10;;;22.10;42.20;;;;;;5188624;28;20443;-51
2022/06/01 10:52:10;;;;;;;3.13;1.73;;;22.10;41.40;;;;;;5200687;28;20424;-50
2022/06/01 10:54:50;;;;;;;5.27;1.80;;;21.80;41.40;;;;;;5205755;28;20446;-51
2022/06/01 10:57:21;;;;;;;2.20;1.60;;;21.70;41.70;;;;;;5204920;28;20190;-52
2022/06/01 10:59:52;;;;;;;1.40;1.40;;;21.60;41.80;;;;;;5206321;28;20441;-51
2022/06/01 11:02:40;;;;;;;2.93;2.23;;;21.70;41.60;;;;;;5205505;28;20521;-49
2022/06/01 11:05:27;;;;;;;7.53;2.40;;;21.90;41.60;;;;;;5194285;28;20215;-50
2022/06/01 11:08:44;;;;;;;2.13;1.93;;;22.10;41.60;;;;;;5203622;28;20473;-53
2022/06/01 11:11:46;;;;;;;3.77;2.90;;;22.10;40.90;;;;;;5160873;28;20432;-53
2022/06/01 11:14:42;;;;;;;2.27;2.00;;;22.20;41.70;;;;;;5194894;28;20461;-51
2022/06/01 11:17:41;;;;;;;2.80;1.67;;;22.50;40.90;;;;;;5198063;28;21024;-53
2022/06/01 11:20:59;;;;;;;2.00;1.83;;;22.70;40.10;;;;;;5194350;28;20522;-51
2022/06/01 11:23:49;;;;;;;2.20;2.03;;;22.80;40.40;;;;;;5178371;28;20535;-52
2022/06/01 11:26:44;;;;;;;3.23;2.03;;;22.90;39.40;;;;;;5202920;28;20492;-50
2022/06/01 11:29:49;;;;;;;3.43;1.87;;;23.00;39.80;;;;;;5202241;28;20442;-51
2022/06/01 11:32:28;;;;;;;2.43;2.23;;;22.80;38.70;;;;;;5195085;28;20517;-49
2022/06/01 11:35:33;;;;;;;2.63;1.90;;;22.60;39.40;;;;;;5200335;28;20435;-52
2022/06/01 11:38:12;;;;;;;2.10;2.00;;;22.60;38.90;;;;;;5182925;28;20446;-52
2022/06/01 11:40:49;;;;;;;2.83;2.47;;;22.80;38.50;;;;;;5201697;28;20497;-50
2022/06/01 11:43:24;;;;;;;3.10;2.93;;;22.40;39.00;;;;;;5214338;23;20513;-57
2022/06/01 11:46:08;;;;;;;8.37;4.63;;;22.10;39.90;;;;;;5210227;28;20430;-56
2022/06/01 11:48:50;;;;;;;2.87;2.03;;;22.10;40.30;;;;;;5204090;28;20465;-57
2022/06/01 11:51:44;;;;;;;14.13;6.90;;;22.10;40.00;;;;;;5202040;28;20507;-57
2022/06/01 11:54:34;;;;;;;3.60;3.40;;;21.80;39.30;;;;;;5198425;28;20588;-55
2022/06/01 11:57:25;;;;;;;2.80;2.00;;;21.60;39.60;;;;;;5204584;28;20833;-55
2022/06/01 12:00:12;;;;;;;2.30;2.10;;;21.40;40.10;;;;;;5202791;28;20486;-58
2022/06/01 12:02:44;;;;;;;3.83;2.03;;;21.50;40.90;;;;;;5186814;28;20957;-56
2022/06/01 12:05:39;;;;;;;1.50;1.50;;;21.50;40.90;;;;;;5192407;28;20445;-55
2022/06/01 12:08:23;;;;;;;3.53;2.10;;;21.60;40.60;;;;;;5202595;28;20481;-56
2022/06/01 12:10:56;;;;;;;3.70;1.93;;;21.80;40.60;;;;;;5204941;28;20522;-56
2022/06/01 12:13:38;;;;;;;1.70;1.60;;;22.00;40.40;;;;;;5201180;28;20454;-55
2022/06/01 12:16:27;;;;;;;4.33;3.57;;;22.00;40.50;;;;;;5197470;28;20420;-55
2022/06/01 12:19:08;;;;;;;2.50;2.30;;;22.20;40.60;;;;;;5206495;28;20437;-57
2022/06/01 12:21:44;;;;;;;20.63;4.50;;;22.10;40.80;;;;;;5205369;28;20462;-54
2022/06/01 12:30:00;;;;;;;2.50;2.17;;;21.40;41.30;;;;;;5204404;28;20437;-55
2022/06/01 12:32:58;;;;;;;1.73;1.63;;;21.20;42.00;;;;;;5206936;28;20461;-57
2022/06/01 12:35:49;;;;;;;3.33;1.93;;;21.10;42.20;;;;;;5196096;28;20466;-58
2022/06/01 12:38:28;;;;;;;4.67;4.27;;;21.00;42.40;;;;;;5204054;28;20798;-57
2022/06/01 12:41:04;;;;;;;4.87;3.33;;;20.90;42.10;;;;;;5203906;28;20438;-56
2022/06/01 12:43:36;;;;;;;1.47;1.37;;;20.90;42.20;;;;;;5201248;28;20865;-55
2022/06/01 12:46:24;;;;;;;1.83;1.73;;;20.80;42.50;;;;;;5197043;28;20418;-57
2022/06/01 12:49:33;;;;;;;2.30;1.90;;;20.60;43.10;;;;;;5207289;28;20788;-55
2022/06/01 12:52:10;;;;;;;1.13;1.13;;;20.20;43.70;;;;;;5207311;28;20417;-56
2022/06/01 12:54:51;;;;;;;2.37;2.17;;;19.80;44.40;;;;;;5199795;28;20472;-56
2022/06/01 12:57:31;;;;;;;4.30;2.20;;;19.50;47.80;;;;;;5200010;28;20438;-56
2022/06/01 13:00:21;;;;;;;3.33;2.40;;;18.60;54.80;;;;;;5204405;28;20521;-55
2022/06/01 13:02:52;;;;;;;1.77;1.67;;;17.60;59.80;;;;;;5198726;28;20422;-56
2022/06/01 13:05:36;;;;;;;4.90;3.70;;;16.70;65.50;;;;;;5208180;28;20517;-55
2022/06/01 13:08:17;;;;;;;6.67;4.93;;;16.10;91.80;;;;;;5203734;28;20559;-56
2022/06/01 13:10:47;;;;;;;3.60;2.70;;;15.80;99.90;;;;;;5198718;28;20439;-56
2022/06/01 13:13:29;;;;;;;10.17;7.30;;;15.60;99.90;;;;;;5208951;28;20539;-56
2022/06/01 13:16:04;;;;;;;4.27;3.50;;;15.50;99.90;;;;;;5207212;28;20194;-56
2022/06/01 13:18:40;;;;;;;6.53;3.20;;;15.30;99.90;;;;;;5203586;28;20899;-55
2022/06/01 13:21:32;;;;;;;2.30;2.20;;;15.10;99.90;;;;;;5206474;28;20484;-55
2022/06/01 13:24:07;;;;;;;7.30;2.70;;;15.20;99.90;;;;;;5197047;28;20446;-54
2022/06/01 13:26:48;;;;;;;5.70;3.03;;;15.00;99.90;;;;;;5199232;28;20461;-55
2022/06/01 13:29:34;;;;;;;4.70;3.00;;;15.00;99.90;;;;;;5207000;28;20985;-54
2022/06/01 13:32:08;;;;;;;2.83;2.70;;;15.20;99.90;;;;;;5203616;28;20796;-55
2022/06/01 13:34:45;;;;;;;3.17;2.93;;;15.50;99.90;;;;;;5206217;28;20434;-56
2022/06/01 13:37:22;;;;;;;3.03;2.70;;;15.70;99.90;;;;;;5200858;28;20422;-55
2022/06/01 13:40:02;;;;;;;2.60;2.40;;;15.70;99.90;;;;;;5193375;28;20438;-57
2022/06/01 13:42:38;;;;;;;8.43;2.57;;;16.00;99.90;;;;;;5201798;28;20430;-56
2022/06/01 13:45:11;;;;;;;3.80;3.50;;;16.10;99.90;;;;;;5204880;28;21047;-55
2022/06/01 13:47:51;;;;;;;2.90;2.70;;;16.10;99.90;;;;;;5206018;28;20854;-55
2022/06/01 13:50:28;;;;;;;1.57;1.57;;;16.10;99.90;;;;;;5202205;28;20773;-55
2022/06/01 13:53:10;;;;;;;2.27;2.10;;;16.00;99.90;;;;;;5202387;28;20439;-56
2022/06/01 13:56:04;;;;;;;7.73;2.70;;;15.70;99.90;;;;;;5202326;28;20512;-54
2022/06/01 13:58:41;;;;;;;8.27;3.87;;;15.60;99.90;;;;;;5199608;28;20426;-56
2022/06/01 14:01:16;;;;;;;12.23;5.27;;;15.50;99.90;;;;;;5195222;28;20410;-55
2022/06/01 14:03:58;;;;;;;26.37;11.97;;;15.20;99.90;;;;;;5204113;28;20814;-55